createdAt,value
2018-08-16T00:00:17.576Z,15.74
2018-08-16T00:02:47.029Z,15.71
2018-08-16T00:05:15.963Z,15.68
2018-08-16T00:07:45.220Z,15.56
2018-08-16T00:10:15.610Z,15.55
2018-08-16T00:12:45.812Z,15.47
2018-08-16T00:15:15.554Z,15.48
2018-08-16T00:17:44.141Z,15.51
2018-08-16T00:20:13.271Z,15.59
2018-08-16T00:22:42.396Z,15.46
2018-08-16T00:25:11.629Z,15.48
2018-08-16T00:27:40.525Z,15.41
2018-08-16T00:30:13.976Z,15.38
2018-08-16T00:32:45.526Z,15.38
2018-08-16T00:35:15.263Z,15.32
2018-08-16T00:37:44.076Z,15.34
2018-08-16T00:40:15.588Z,15.35
2018-08-16T00:42:45.156Z,15.37
2018-08-16T00:45:14.560Z,15.26
2018-08-16T00:47:43.217Z,15.32
2018-08-16T00:50:14.142Z,15.30
2018-08-16T00:52:43.036Z,15.24
2018-08-16T00:55:13.180Z,15.28
2018-08-16T00:57:42.137Z,15.34
2018-08-16T01:00:12.981Z,15.26
2018-08-16T01:02:41.723Z,15.18
2018-08-16T01:05:10.828Z,15.19
2018-08-16T01:07:39.668Z,15.19
2018-08-16T01:10:10.416Z,15.20
2018-08-16T01:12:39.079Z,15.19
2018-08-16T01:15:09.914Z,15.17
2018-08-16T01:17:38.548Z,15.10
2018-08-16T01:20:07.815Z,15.02
2018-08-16T01:22:36.648Z,15.04
2018-08-16T01:25:06.613Z,15.10
2018-08-16T01:27:35.481Z,15.05
2018-08-16T01:30:05.184Z,15.05
2018-08-16T01:32:33.789Z,15.06
2018-08-16T01:35:02.580Z,15.06
2018-08-16T01:37:32.372Z,14.99
2018-08-16T01:40:00.952Z,15.01
2018-08-16T01:42:29.805Z,15.03
2018-08-16T01:44:58.623Z,14.96
2018-08-16T01:47:28.236Z,14.93
2018-08-16T01:49:57.015Z,14.97
2018-08-16T01:52:25.852Z,14.96
2018-08-16T01:54:54.523Z,14.93
2018-08-16T01:57:23.333Z,14.91
2018-08-16T01:59:51.957Z,14.93
2018-08-16T02:02:20.789Z,14.90
2018-08-16T02:04:49.593Z,14.90
2018-08-16T02:07:19.383Z,14.87
2018-08-16T02:09:48.284Z,14.83
2018-08-16T02:12:16.912Z,14.94
2018-08-16T02:14:45.501Z,14.87
2018-08-16T02:17:14.356Z,14.84
2018-08-16T02:19:43.171Z,14.82
2018-08-16T02:22:11.846Z,14.83
2018-08-16T02:24:40.419Z,14.77
2018-08-16T02:27:09.047Z,14.72
2018-08-16T02:29:37.822Z,14.73
2018-08-16T02:32:06.517Z,14.89
2018-08-16T02:34:35.152Z,14.71
2018-08-16T02:37:03.960Z,14.69
2018-08-16T02:39:32.603Z,14.58
2018-08-16T02:42:01.561Z,14.62
2018-08-16T02:44:30.443Z,14.60
2018-08-16T02:46:59.048Z,14.58
2018-08-16T02:49:27.692Z,14.57
2018-08-16T02:51:56.516Z,14.50
2018-08-16T02:54:25.247Z,14.60
2018-08-16T02:56:53.869Z,14.53
2018-08-16T02:59:22.617Z,14.57
2018-08-16T03:01:51.397Z,14.51
2018-08-16T03:04:20.612Z,14.44
2018-08-16T03:06:49.624Z,14.54
2018-08-16T03:09:18.356Z,14.50
2018-08-16T03:11:47.369Z,14.46
2018-08-16T03:14:15.983Z,14.38
2018-08-16T03:16:44.715Z,14.39
2018-08-16T03:19:13.527Z,14.28
2018-08-16T03:21:42.293Z,14.32
2018-08-16T03:24:11.270Z,14.30
2018-08-16T03:26:40.169Z,14.33
2018-08-16T03:29:08.775Z,14.35
2018-08-16T03:31:37.465Z,14.28
2018-08-16T03:34:06.443Z,14.28
2018-08-16T03:36:35.167Z,14.36
2018-08-16T03:39:05.288Z,14.27
2018-08-16T03:41:33.972Z,14.39
2018-08-16T03:44:02.856Z,14.41
2018-08-16T03:46:31.661Z,14.42
2018-08-16T03:49:00.416Z,14.49
2018-08-16T03:51:29.144Z,14.37
2018-08-16T03:53:57.812Z,14.29
2018-08-16T03:56:26.604Z,14.27
2018-08-16T03:58:55.184Z,14.20
2018-08-16T04:04:19.362Z,14.28
2018-08-16T04:06:48.142Z,14.28
2018-08-16T04:09:16.702Z,14.29
2018-08-16T04:11:45.396Z,14.19
2018-08-16T04:14:14.254Z,14.28
2018-08-16T04:16:43.223Z,14.25
2018-08-16T04:19:11.935Z,14.23
2018-08-16T04:21:40.842Z,14.38
2018-08-16T04:24:09.535Z,14.31
2018-08-16T04:26:38.298Z,14.37
2018-08-16T04:29:07.315Z,14.36
2018-08-16T04:31:35.962Z,14.39
2018-08-16T04:34:04.690Z,14.44
2018-08-16T04:36:34.992Z,14.49
2018-08-16T04:39:03.850Z,14.53
2018-08-16T04:41:32.614Z,14.55
2018-08-16T04:44:01.681Z,14.64
2018-08-16T04:46:30.315Z,14.56
2018-08-16T04:48:59.018Z,14.56
2018-08-16T04:51:27.725Z,14.74
2018-08-16T04:53:56.372Z,14.83
2018-08-16T04:56:25.253Z,14.87
2018-08-16T04:58:54.149Z,14.89
2018-08-16T05:01:23.302Z,14.95
2018-08-16T05:03:52.296Z,15.06
2018-08-16T05:06:21.128Z,15.08
2018-08-16T05:08:49.783Z,15.18
2018-08-16T05:11:19.298Z,15.21
2018-08-16T05:13:47.958Z,15.28
2018-08-16T05:16:16.797Z,15.40
2018-08-16T05:18:45.659Z,15.46
2018-08-16T05:21:14.543Z,15.54
2018-08-16T05:23:43.117Z,15.65
2018-08-16T05:26:11.836Z,15.73
2018-08-16T05:28:40.607Z,15.81
2018-08-16T05:31:09.321Z,15.91
2018-08-16T05:33:37.971Z,16.10
2018-08-16T05:36:06.815Z,16.37
2018-08-16T05:38:35.418Z,16.35
2018-08-16T05:41:04.463Z,16.54
2018-08-16T05:43:33.318Z,16.82
2018-08-16T05:46:02.243Z,16.88
2018-08-16T05:48:30.961Z,16.97
2018-08-16T05:50:59.603Z,17.11
2018-08-16T05:53:28.710Z,17.19
2018-08-16T05:55:57.613Z,17.41
2018-08-16T05:58:26.381Z,17.57
2018-08-16T06:00:55.002Z,17.71
2018-08-16T06:03:23.647Z,17.86
2018-08-16T06:05:52.555Z,18.07
2018-08-16T06:08:21.466Z,18.19
2018-08-16T06:10:50.548Z,18.33
2018-08-16T06:13:19.260Z,18.43
2018-08-16T06:15:47.874Z,18.39
2018-08-16T06:18:16.666Z,18.57
2018-08-16T06:20:45.278Z,18.76
2018-08-16T06:23:14.369Z,18.86
2018-08-16T06:25:43.102Z,18.99
2018-08-16T06:28:11.891Z,19.10
2018-08-16T06:30:40.554Z,19.08
2018-08-16T06:33:15.758Z,19.26
2018-08-16T06:35:44.583Z,19.41
2018-08-16T06:38:13.302Z,19.52
2018-08-16T06:40:42.079Z,19.69
2018-08-16T06:43:10.978Z,19.67
2018-08-16T06:45:39.848Z,19.91
2018-08-16T06:48:08.683Z,19.94
2018-08-16T06:50:37.516Z,19.98
2018-08-16T06:53:06.179Z,20.19
2018-08-16T06:55:34.937Z,20.27
2018-08-16T06:58:04.209Z,20.42
2018-08-16T07:00:32.827Z,20.38
2018-08-16T07:03:01.753Z,20.67
2018-08-16T07:05:30.521Z,20.77
2018-08-16T07:07:59.222Z,20.83
2018-08-16T07:10:27.899Z,21.03
2018-08-16T07:13:00.399Z,21.07
2018-08-16T07:15:29.743Z,21.14
2018-08-16T07:17:58.891Z,21.26
2018-08-16T07:20:27.934Z,21.46
2018-08-16T07:22:56.759Z,21.67
2018-08-16T07:25:25.663Z,21.80
2018-08-16T07:27:54.365Z,21.81
2018-08-16T07:30:23.346Z,21.84
2018-08-16T07:32:52.135Z,21.93
2018-08-16T07:35:21.041Z,22.00
2018-08-16T07:37:50.003Z,22.18
2018-08-16T07:40:18.860Z,22.18
2018-08-16T07:42:47.556Z,22.23
2018-08-16T07:45:16.178Z,22.37
2018-08-16T07:47:45.084Z,22.40
2018-08-16T07:50:13.873Z,22.64
2018-08-16T07:52:42.633Z,22.73
2018-08-16T07:55:11.642Z,22.94
2018-08-16T07:57:40.798Z,22.64
2018-08-16T08:00:15.957Z,22.78
2018-08-16T08:02:45.043Z,22.83
2018-08-16T08:05:13.702Z,22.74
2018-08-16T08:07:42.703Z,22.96
2018-08-16T08:10:11.427Z,23.00
2018-08-16T08:12:40.196Z,23.28
2018-08-16T08:15:11.581Z,23.38
2018-08-16T08:17:41.282Z,23.24
2018-08-16T08:20:13.149Z,23.20
2018-08-16T08:22:42.281Z,23.41
2018-08-16T08:25:11.687Z,23.64
2018-08-16T08:27:40.410Z,23.36
2018-08-16T08:30:12.664Z,23.56
2018-08-16T08:32:41.932Z,23.62
2018-08-16T08:35:10.990Z,23.82
2018-08-16T08:37:50.787Z,23.93
2018-08-16T08:40:26.296Z,23.80
2018-08-16T08:42:55.294Z,23.92
2018-08-16T08:45:24.370Z,24.17
2018-08-16T08:47:56.230Z,24.19
2018-08-16T08:50:25.459Z,24.20
2018-08-16T08:52:58.599Z,24.19
2018-08-16T08:55:38.611Z,24.27
2018-08-16T08:58:18.383Z,24.30
2018-08-16T09:00:47.107Z,24.30
2018-08-16T09:03:15.893Z,24.42
2018-08-16T09:05:44.783Z,24.46
2018-08-16T09:08:13.693Z,24.59
2018-08-16T09:10:54.896Z,24.65
2018-08-16T09:13:35.939Z,24.79
2018-08-16T09:16:12.133Z,25.01
2018-08-16T09:18:41.551Z,24.99
2018-08-16T09:21:14.146Z,25.20
2018-08-16T09:23:49.217Z,25.01
2018-08-16T09:26:23.443Z,25.38
2018-08-16T09:28:52.369Z,25.18
2018-08-16T09:31:32.734Z,25.12
2018-08-16T09:34:36.127Z,25.15
2018-08-16T09:37:04.754Z,25.04
2018-08-16T09:39:33.521Z,25.23
2018-08-16T09:42:02.150Z,25.56
2018-08-16T09:44:30.752Z,25.50
2018-08-16T09:47:11.351Z,25.21
2018-08-16T09:49:49.963Z,25.31
2018-08-16T09:52:19.643Z,25.70
2018-08-16T09:54:52.474Z,25.64
2018-08-16T09:57:21.498Z,25.78
2018-08-16T09:59:50.122Z,25.99
2018-08-16T10:02:18.880Z,25.94
2018-08-16T10:04:47.510Z,25.94
2018-08-16T10:07:16.296Z,26.39
2018-08-16T10:09:44.999Z,26.44
2018-08-16T10:12:14.016Z,26.18
2018-08-16T10:14:42.995Z,26.43
2018-08-16T10:17:11.893Z,26.40
2018-08-16T10:19:40.562Z,26.12
2018-08-16T10:22:09.266Z,26.60
2018-08-16T10:24:38.124Z,26.12
2018-08-16T10:27:07.011Z,26.07
2018-08-16T10:29:35.524Z,26.55
2018-08-16T10:32:04.834Z,26.89
2018-08-16T10:34:33.544Z,27.01
2018-08-16T10:37:02.503Z,27.31
2018-08-16T10:39:31.065Z,27.20
2018-08-16T10:41:59.973Z,27.62
2018-08-16T10:44:28.605Z,28.50
2018-08-16T10:46:57.538Z,28.67
2018-08-16T10:49:26.239Z,28.88
2018-08-16T10:52:01.731Z,29.43
2018-08-16T10:54:30.412Z,29.73
2018-08-16T10:56:59.247Z,30.11
2018-08-16T10:59:28.127Z,30.39
2018-08-16T11:01:56.880Z,29.91
2018-08-16T11:04:25.509Z,29.76
2018-08-16T11:06:54.196Z,30.28
2018-08-16T11:09:22.884Z,30.20
2018-08-16T11:11:51.496Z,30.60
2018-08-16T11:14:20.248Z,31.07
2018-08-16T11:16:49.928Z,30.63
2018-08-16T11:19:18.819Z,31.50
2018-08-16T11:21:48.117Z,31.66
2018-08-16T11:24:16.881Z,31.56
2018-08-16T11:26:45.623Z,31.62
2018-08-16T11:29:14.676Z,32.01
2018-08-16T11:31:43.395Z,32.86
2018-08-16T11:34:12.007Z,32.25
2018-08-16T11:36:40.808Z,32.36
2018-08-16T11:39:09.695Z,32.99
2018-08-16T11:41:38.399Z,31.39
2018-08-16T11:44:07.795Z,33.15
2018-08-16T11:46:36.481Z,32.70
2018-08-16T11:49:05.402Z,32.69
2018-08-16T11:51:34.092Z,32.73
2018-08-16T11:54:02.814Z,32.67
2018-08-16T11:56:31.434Z,32.79
2018-08-16T11:59:00.214Z,33.92
2018-08-16T12:01:28.875Z,34.48
2018-08-16T12:03:57.879Z,33.64
2018-08-16T12:06:26.551Z,33.70
2018-08-16T12:08:55.092Z,32.35
2018-08-16T12:11:23.776Z,33.15
2018-08-16T12:13:52.619Z,32.86
2018-08-16T12:16:21.305Z,32.64
2018-08-16T12:18:50.178Z,33.00
2018-08-16T12:21:18.866Z,33.53
2018-08-16T12:23:47.759Z,32.98
2018-08-16T12:26:16.458Z,33.97
2018-08-16T12:28:45.275Z,33.70
2018-08-16T12:31:13.956Z,33.85
2018-08-16T12:33:42.764Z,32.67
2018-08-16T12:36:11.467Z,33.82
2018-08-16T12:38:40.262Z,32.89
2018-08-16T12:41:09.065Z,33.82
2018-08-16T12:43:37.900Z,33.98
2018-08-16T12:46:06.751Z,33.16
2018-08-16T12:48:35.736Z,34.70
2018-08-16T12:51:04.441Z,34.58
2018-08-16T12:53:33.109Z,33.53
2018-08-16T12:56:01.821Z,34.52
2018-08-16T12:58:30.727Z,34.88
2018-08-16T13:00:59.339Z,34.38
2018-08-16T13:03:28.050Z,34.00
2018-08-16T13:05:56.660Z,35.44
2018-08-16T13:08:25.538Z,35.49
2018-08-16T13:10:54.331Z,35.74
2018-08-16T13:13:23.128Z,34.60
2018-08-16T13:15:51.931Z,34.59
2018-08-16T13:18:22.010Z,36.37
2018-08-16T13:20:50.820Z,36.59
2018-08-16T13:23:19.992Z,36.57
2018-08-16T13:25:48.988Z,36.00
2018-08-16T13:28:17.787Z,35.61
2018-08-16T13:30:47.211Z,35.57
2018-08-16T13:33:16.083Z,36.33
2018-08-16T13:35:44.675Z,35.80
2018-08-16T13:38:13.320Z,36.53
2018-08-16T13:40:42.130Z,36.97
2018-08-16T13:43:10.842Z,36.68
2018-08-16T13:45:39.642Z,36.86
2018-08-16T13:48:08.314Z,36.71
2018-08-16T13:50:37.211Z,36.84
2018-08-16T13:53:07.239Z,37.33
2018-08-16T13:55:36.400Z,36.95
2018-08-16T13:58:05.560Z,37.00
2018-08-16T14:00:34.227Z,37.07
2018-08-16T14:03:03.196Z,36.97
2018-08-16T14:05:31.932Z,37.30
2018-08-16T14:08:00.611Z,37.19
2018-08-16T14:10:29.503Z,36.91
2018-08-16T14:12:58.127Z,37.59
2018-08-16T14:15:27.025Z,37.62
2018-08-16T14:17:55.635Z,38.62
2018-08-16T14:20:24.278Z,38.11
2018-08-16T14:22:52.848Z,38.34
2018-08-16T14:25:21.746Z,38.11
2018-08-16T14:27:50.670Z,37.50
2018-08-16T14:30:19.301Z,37.87
2018-08-16T14:32:48.067Z,37.80
2018-08-16T14:35:16.839Z,38.10
2018-08-16T14:37:45.692Z,34.97
2018-08-16T14:40:15.531Z,33.42
2018-08-16T14:42:44.123Z,32.54
2018-08-16T14:45:12.827Z,31.48
2018-08-16T14:47:42.354Z,31.10
2018-08-16T14:50:10.985Z,31.04
2018-08-16T14:52:39.607Z,31.00
2018-08-16T14:55:08.735Z,30.96
2018-08-16T14:57:37.719Z,31.03
2018-08-16T15:00:07.731Z,30.68
2018-08-16T15:02:36.982Z,30.57
2018-08-16T15:05:06.736Z,30.39
2018-08-16T15:07:35.376Z,30.34
2018-08-16T15:10:04.919Z,30.38
2018-08-16T15:12:33.899Z,30.24
2018-08-16T15:15:02.659Z,30.23
2018-08-16T15:17:31.386Z,30.05
2018-08-16T15:20:00.079Z,30.10
2018-08-16T15:22:28.866Z,30.09
2018-08-16T15:24:57.582Z,30.09
2018-08-16T15:27:26.778Z,29.93
2018-08-16T15:29:55.439Z,29.79
2018-08-16T15:32:24.246Z,29.69
2018-08-16T15:34:52.871Z,29.55
2018-08-16T15:37:21.707Z,29.66
2018-08-16T15:39:50.704Z,29.79
2018-08-16T15:42:19.624Z,29.79
2018-08-16T15:44:48.519Z,29.54
2018-08-16T15:47:17.570Z,29.53
2018-08-16T15:49:46.502Z,29.76
2018-08-16T15:52:15.201Z,29.66
2018-08-16T15:54:43.938Z,29.54
2018-08-16T15:57:12.723Z,29.44
2018-08-16T15:59:41.659Z,29.45
2018-08-16T16:02:10.494Z,29.45
2018-08-16T16:04:39.222Z,29.28
2018-08-16T16:07:07.879Z,29.29
2018-08-16T16:09:36.829Z,29.24
2018-08-16T16:12:05.629Z,29.28
2018-08-16T16:14:34.259Z,29.22
2018-08-16T16:17:03.090Z,29.12
2018-08-16T16:19:31.753Z,29.19
2018-08-16T16:22:00.401Z,29.16
2018-08-16T16:24:29.122Z,29.09
2018-08-16T16:26:57.946Z,29.10
2018-08-16T16:29:27.310Z,29.02
2018-08-16T16:31:56.633Z,29.03
2018-08-16T16:34:26.377Z,28.95
2018-08-16T16:36:55.033Z,28.94
2018-08-16T16:39:24.566Z,28.83
2018-08-16T16:41:53.880Z,28.76
2018-08-16T16:44:22.711Z,28.74
2018-08-16T16:46:51.771Z,28.69
2018-08-16T16:49:24.025Z,28.75
2018-08-16T16:51:54.133Z,28.61
2018-08-16T16:54:22.793Z,28.54
2018-08-16T16:56:51.889Z,28.44
2018-08-16T16:59:20.673Z,28.51
2018-08-16T17:01:49.505Z,28.78
2018-08-16T17:04:18.100Z,28.63
2018-08-16T17:06:46.926Z,28.70
2018-08-16T17:09:15.704Z,28.62
2018-08-16T17:11:44.743Z,28.71
2018-08-16T17:14:13.429Z,28.59
2018-08-16T17:16:42.810Z,28.32
2018-08-16T17:19:11.523Z,28.36
2018-08-16T17:21:40.161Z,28.28
2018-08-16T17:24:09.048Z,28.08
2018-08-16T17:26:38.105Z,27.90
2018-08-16T17:29:07.312Z,27.91
2018-08-16T17:31:36.155Z,27.94
2018-08-16T17:34:04.786Z,27.78
2018-08-16T17:36:33.655Z,27.65
2018-08-16T17:39:02.470Z,27.50
2018-08-16T17:41:31.241Z,27.59
2018-08-16T17:43:59.982Z,27.46
2018-08-16T17:46:29.488Z,27.23
2018-08-16T17:48:58.372Z,27.14
2018-08-16T17:51:27.717Z,27.02
2018-08-16T17:53:57.118Z,27.00
2018-08-16T17:56:26.330Z,26.85
2018-08-16T17:58:55.033Z,26.78
2018-08-16T18:01:23.718Z,26.74
2018-08-16T18:03:52.490Z,26.61
2018-08-16T18:06:21.334Z,26.55
2018-08-16T18:08:50.049Z,26.41
2018-08-16T18:11:19.227Z,26.31
2018-08-16T18:13:47.892Z,26.19
2018-08-16T18:16:16.682Z,26.14
2018-08-16T18:18:45.534Z,26.08
2018-08-16T18:21:14.282Z,25.89
2018-08-16T18:23:43.102Z,25.74
2018-08-16T18:26:11.915Z,25.54
2018-08-16T18:28:40.636Z,25.57
2018-08-16T18:31:09.451Z,25.47
2018-08-16T18:33:38.162Z,25.44
2018-08-16T18:36:07.096Z,25.37
2018-08-16T18:38:35.867Z,25.33
2018-08-16T18:41:04.691Z,25.16
2018-08-16T18:43:33.556Z,24.71
2018-08-16T18:46:02.464Z,24.82
2018-08-16T18:48:31.324Z,25.00
2018-08-16T18:51:00.456Z,24.70
2018-08-16T18:53:29.266Z,24.80
2018-08-16T18:55:58.232Z,24.78
2018-08-16T18:58:26.955Z,24.86
2018-08-16T19:00:56.554Z,24.70
2018-08-16T19:03:25.506Z,24.66
2018-08-16T19:05:54.395Z,24.71
2018-08-16T19:08:23.290Z,24.51
2018-08-16T19:10:52.231Z,24.39
2018-08-16T19:13:20.892Z,24.35
2018-08-16T19:15:49.545Z,24.27
2018-08-16T19:18:18.196Z,24.27
2018-08-16T19:20:47.926Z,23.94
2018-08-16T19:23:16.850Z,23.80
2018-08-16T19:25:45.937Z,23.53
2018-08-16T19:28:14.630Z,23.24
2018-08-16T19:30:43.712Z,23.10
2018-08-16T19:33:12.792Z,22.95
2018-08-16T19:35:41.724Z,22.87
2018-08-16T19:38:10.436Z,22.83
2018-08-16T19:40:39.270Z,22.75
2018-08-16T19:43:08.574Z,22.61
2018-08-16T19:45:37.530Z,22.62
2018-08-16T19:48:06.790Z,22.56
2018-08-16T19:50:35.510Z,22.45
2018-08-16T19:53:05.607Z,22.36
2018-08-16T19:55:34.316Z,22.28
2018-08-16T19:58:03.130Z,22.26
2018-08-16T20:00:32.068Z,22.19
2018-08-16T20:03:00.934Z,22.13
2018-08-16T20:05:29.817Z,22.06
2018-08-16T20:07:58.642Z,22.01
2018-08-16T20:10:27.324Z,21.89
2018-08-16T20:12:55.957Z,21.83
2018-08-16T20:15:25.778Z,21.75
2018-08-16T20:17:57.061Z,21.67
2018-08-16T20:20:27.281Z,21.58
2018-08-16T20:22:56.912Z,21.52
2018-08-16T20:25:26.065Z,21.49
2018-08-16T20:27:54.811Z,21.44
2018-08-16T20:30:26.098Z,21.36
2018-08-16T20:32:54.725Z,21.27
2018-08-16T20:35:24.679Z,21.24
2018-08-16T20:37:54.748Z,21.16
2018-08-16T20:40:24.573Z,21.18
2018-08-16T20:42:53.665Z,21.10
2018-08-16T20:45:22.330Z,21.01
2018-08-16T20:47:51.057Z,20.95
2018-08-16T20:50:20.088Z,20.90
2018-08-16T20:52:48.909Z,20.88
2018-08-16T20:55:17.922Z,20.80
2018-08-16T20:57:46.641Z,20.71
2018-08-16T21:00:15.378Z,20.69
2018-08-16T21:02:44.182Z,20.64
2018-08-16T21:05:13.066Z,20.60
2018-08-16T21:07:41.788Z,20.61
2018-08-16T21:10:11.929Z,20.55
2018-08-16T21:12:40.521Z,20.48
2018-08-16T21:15:09.543Z,20.46
2018-08-16T21:17:38.437Z,20.38
2018-08-16T21:20:07.370Z,20.30
2018-08-16T21:22:36.568Z,20.38
2018-08-16T21:25:06.029Z,20.40
2018-08-16T21:27:35.437Z,20.20
2018-08-16T21:30:05.460Z,20.23
2018-08-16T21:32:34.301Z,20.27
2018-08-16T21:35:03.233Z,20.23
2018-08-16T21:37:33.943Z,20.19
2018-08-16T21:40:02.940Z,20.18
2018-08-16T21:42:32.403Z,20.30
2018-08-16T21:45:01.315Z,20.43
2018-08-16T21:47:30.729Z,20.63
2018-08-16T21:49:59.730Z,20.64
2018-08-16T21:52:31.097Z,20.73
2018-08-16T21:55:00.890Z,20.94
2018-08-16T21:57:29.553Z,20.98
2018-08-16T21:59:58.214Z,20.80
2018-08-16T22:02:27.346Z,21.07
2018-08-16T22:04:56.740Z,20.99
2018-08-16T22:08:30.544Z,20.98
2018-08-16T22:10:59.478Z,21.06
2018-08-16T22:13:28.403Z,21.17
2018-08-16T22:15:57.564Z,21.04
2018-08-16T22:18:26.539Z,21.21
2018-08-16T22:20:55.438Z,21.29
2018-08-16T22:23:24.396Z,21.37
2018-08-16T22:25:53.335Z,21.32
2018-08-16T22:28:22.223Z,21.16
2018-08-16T22:30:50.830Z,21.00
2018-08-16T22:33:20.038Z,21.09
2018-08-16T22:35:49.350Z,21.23
2018-08-16T22:38:18.465Z,21.23
2018-08-16T22:40:47.249Z,21.32
2018-08-16T22:43:15.991Z,21.20
2018-08-16T22:45:44.654Z,21.21
2018-08-16T22:48:13.444Z,21.20
2018-08-16T22:50:43.424Z,21.07
2018-08-16T22:53:12.004Z,21.16
2018-08-16T22:55:40.796Z,21.05
2018-08-16T22:58:09.370Z,20.99
2018-08-16T23:00:38.113Z,21.01
2018-08-16T23:03:07.008Z,21.13
2018-08-16T23:05:35.776Z,20.98
2018-08-16T23:08:04.382Z,21.08
2018-08-16T23:10:33.017Z,20.94
2018-08-16T23:13:01.763Z,20.83
2018-08-16T23:15:30.488Z,20.71
2018-08-16T23:17:59.354Z,20.80
2018-08-16T23:20:28.151Z,20.54
2018-08-16T23:22:56.782Z,20.26
2018-08-16T23:25:25.528Z,20.20
2018-08-16T23:27:54.250Z,20.15
2018-08-16T23:30:22.891Z,19.91
2018-08-16T23:32:51.596Z,19.79
2018-08-16T23:35:21.285Z,19.85
2018-08-16T23:37:49.862Z,19.84
2018-08-16T23:40:18.667Z,19.93
2018-08-16T23:42:47.406Z,19.66
2018-08-16T23:45:16.590Z,19.61
2018-08-16T23:48:48.333Z,19.54
2018-08-16T23:51:17.105Z,19.62
2018-08-16T23:53:45.672Z,19.48
2018-08-16T23:56:14.560Z,19.47
2018-08-16T23:58:43.537Z,19.58
